Etterville, Missouri
Current Conditions -  °F | °C
As of 1:55 PM on Thursday 30 Oct 2014 (Local Time) from KAIZ Reporting Station
Overcast Overcast  
Wind Chill: 54°   Ceiling: 7500
Heat Index: 54°   Visibility: 10mi
Dew Point: 45°   Wind: 9mph
Humidity: 72%   Direction: 150°SSE
Pressure: 29.99"   Gusts: NA
Location:  38.37°N, 92.47°W
Report Text: KAIZ 301855Z AUTO 15008KT 10SM BKN075 OVC080 12/07 A2999 RMK AO1 LTG DSNT NW
Loading
Personal Weather Stations






























Interactive Weather Map
Tropical Storm Tracking
New forecast layout! Learn more

10-Day Weather Forecast

Advertisements
Track Severe Weather on mobile